Comodoro, Brazil
Current Conditions -  °F | °C
As of 11:00 AM on Thursday 18 Dec 2014 (Local Time) from SLSI Reporting Station
Light Rain Light Rain  
Wind Chill: 73°   Ceiling: 1000
Heat Index: 73°   Visibility: 5mi
Dew Point: 73°   Wind: 0mph
Humidity: 100%   Direction: NA
Pressure: 29.91"   Gusts: NA
Location:  13.66°S, 59.79°W
Report Text: SLSI 181400Z 00000KT 8000 -RA BKN010 OVC070 23/23 Q1013
Loading
Personal Weather Stations






























Interactive Weather Map New forecast layout! Learn more

10-Day Weather Forecast

Advertisements
Track Severe Weather on mobile